PWSweather.com
Personal Weather Stations
Station Observations
COONRAPIDS
Minneapolis, MN 55433

Minneapolis, MN 55433

Lat: 45.187721, Lon: -93.36828

Elevation: 898

Station Type: Davis Vantage Pro 2

High Low Average
Temperature 15.4°F-9.2°C -10.2°F-23.4°C 5.9°F-14.5°C
Dew Point 11.5°F-11.4°C -15.7°F-26.5°C 0.8°F-17.3°C
Winds 4.6 mph 7.4 kmh Calm Calm Calm SWCalm SW
Wind Gusts 8.1 mph13.0 kmh -- 1.0 mph1.6 kmh
Humidity 85% 73% 79%
Pressure 30.67 in1038.6 mb 30.12 in1020.0 mb -
Precipitation 0.00 in0.0 mm - -
Hour Temp Dew Point Humidity Winds Wind Gusts Pressure Precip Precip Rate Daily Precip Total
12:00 AM -10.6°F-23.7°C -16.3°F-26.8°C 75% Calm Calm -- 30.69 in1039.3 mb - 0.00 in0.0 mm 0.00 in0.0 mm
12:10 AM -10.7°F-23.7°C -16.2°F-26.8°C 76% Calm Calm -- 30.68 in1038.9 mb - 0.00 in0.0 mm 0.00 in0.0 mm
12:20 AM -10.6°F-23.7°C -16.1°F-26.7°C 76% Calm Calm -- 30.68 in1038.9 mb - 0.00 in0.0 mm 0.00 in0.0 mm
12:30 AM -10.5°F-23.6°C -16.0°F-26.7°C 76% Calm Calm -- 30.68 in1038.9 mb - 0.00 in0.0 mm 0.00 in0.0 mm
12:40 AM -10.4°F-23.6°C -15.9°F-26.6°C 76% Calm Calm -- 30.68 in1038.9 mb - 0.00 in0.0 mm 0.00 in0.0 mm
12:50 AM -10.4°F-23.6°C -15.9°F-26.6°C 76% Calm Calm -- 30.68 in1038.9 mb - 0.00 in0.0 mm 0.00 in0.0 mm
01:00 AM -10.2°F-23.4°C -15.7°F-26.5°C 76% Calm Calm -- 30.67 in1038.6 mb - 0.00 in0.0 mm 0.00 in0.0 mm
01:10 AM -10.1°F-23.4°C -15.6°F-26.4°C 76% Calm Calm -- 30.67 in1038.6 mb - 0.00 in0.0 mm 0.00 in0.0 mm
01:20 AM -10.0°F-23.3°C -15.5°F-26.4°C 76% Calm Calm -- 30.67 in1038.6 mb - 0.00 in0.0 mm 0.00 in0.0 mm
01:30 AM -9.8°F-23.2°C -15.3°F-26.3°C 76% Calm Calm -- 30.67 in1038.6 mb - 0.00 in0.0 mm 0.00 in0.0 mm
01:40 AM -9.5°F-23.1°C -14.7°F-25.9°C 77% Calm Calm -- 30.66 in1038.3 mb - 0.00 in0.0 mm 0.00 in0.0 mm
01:50 AM -9.3°F-22.9°C -14.6°F-25.9°C 77% Calm Calm -- 30.66 in1038.3 mb - 0.00 in0.0 mm 0.00 in0.0 mm
02:00 AM -9.3°F-22.9°C -14.6°F-25.9°C 77% Calm Calm -- 30.65 in1037.9 mb - 0.00 in0.0 mm 0.00 in0.0 mm
02:10 AM -9.1°F-22.8°C -14.4°F-25.8°C 77% Calm Calm -- 30.65 in1037.9 mb - 0.00 in0.0 mm 0.00 in0.0 mm
02:20 AM -9.0°F-22.8°C -14.2°F-25.7°C 77% Calm Calm -- 30.64 in1037.6 mb - 0.00 in0.0 mm 0.00 in0.0 mm
02:30 AM -8.8°F-22.7°C -14.1°F-25.6°C 77% Calm Calm -- 30.65 in1037.9 mb - 0.00 in0.0 mm 0.00 in0.0 mm
02:40 AM -8.8°F-22.7°C -14.0°F-25.6°C 77% Calm Calm -- 30.64 in1037.6 mb - 0.00 in0.0 mm 0.00 in0.0 mm
02:50 AM -8.8°F-22.7°C -14.1°F-25.6°C 77% Calm Calm -- 30.64 in1037.6 mb - 0.00 in0.0 mm 0.00 in0.0 mm
03:00 AM -8.4°F-22.4°C -13.7°F-25.4°C 77% Calm Calm -- 30.64 in1037.6 mb - 0.00 in0.0 mm 0.00 in0.0 mm
03:10 AM -7.2°F-21.8°C -12.3°F-24.6°C 78% Calm Calm -- 30.63 in1037.3 mb - 0.00 in0.0 mm 0.00 in0.0 mm
03:20 AM -7.2°F-21.8°C -12.5°F-24.7°C 77% Calm Calm -- 30.63 in1037.3 mb - 0.00 in0.0 mm 0.00 in0.0 mm
03:30 AM -7.2°F-21.8°C -12.5°F-24.7°C 77% Calm Calm -- 30.63 in1037.3 mb - 0.00 in0.0 mm 0.00 in0.0 mm
03:40 AM -6.8°F-21.6°C -11.8°F-24.3°C 78% Calm Calm -- 30.63 in1037.3 mb - 0.00 in0.0 mm 0.00 in0.0 mm
03:50 AM -6.6°F-21.4°C -12.0°F-24.4°C 77% Calm Calm -- 30.62 in1036.9 mb - 0.00 in0.0 mm 0.00 in0.0 mm
04:00 AM -6.3°F-21.3°C -11.3°F-24.1°C 78% Calm Calm -- 30.62 in1036.9 mb - 0.00 in0.0 mm 0.00 in0.0 mm
04:10 AM -6.1°F-21.2°C -11.4°F-24.1°C 77% Calm Calm -- 30.61 in1036.6 mb - 0.00 in0.0 mm 0.00 in0.0 mm
04:20 AM -6.2°F-21.2°C -11.6°F-24.2°C 77% Calm Calm -- 30.60 in1036.2 mb - 0.00 in0.0 mm 0.00 in0.0 mm
04:30 AM -6.4°F-21.3°C -11.7°F-24.3°C 77% Calm Calm -- 30.60 in1036.2 mb - 0.00 in0.0 mm 0.00 in0.0 mm
04:40 AM -6.3°F-21.3°C -11.6°F-24.2°C 77% Calm Calm -- 30.59 in1035.9 mb - 0.00 in0.0 mm 0.00 in0.0 mm
04:50 AM -6.1°F-21.2°C -11.4°F-24.1°C 77% Calm Calm -- 30.59 in1035.9 mb - 0.00 in0.0 mm 0.00 in0.0 mm
05:00 AM -6.0°F-21.1°C -11.3°F-24.1°C 77% Calm Calm -- 30.58 in1035.6 mb - 0.00 in0.0 mm 0.00 in0.0 mm
05:10 AM -5.8°F-21.0°C -11.1°F-23.9°C 77% Calm Calm -- 30.58 in1035.6 mb - 0.00 in0.0 mm 0.00 in0.0 mm
05:20 AM -5.8°F-21.0°C -11.1°F-23.9°C 77% Calm Calm -- 30.58 in1035.6 mb - 0.00 in0.0 mm 0.00 in0.0 mm
05:30 AM -5.8°F-21.0°C -11.1°F-23.9°C 77% Calm Calm -- 30.57 in1035.2 mb - 0.00 in0.0 mm 0.00 in0.0 mm
05:40 AM -5.7°F-20.9°C -11.0°F-23.9°C 77% Calm Calm -- 30.57 in1035.2 mb - 0.00 in0.0 mm 0.00 in0.0 mm
05:50 AM -5.7°F-20.9°C -11.0°F-23.9°C 77% Calm Calm -- 30.56 in1034.9 mb - 0.00 in0.0 mm 0.00 in0.0 mm
06:00 AM -6.0°F-21.1°C -11.3°F-24.1°C 77% Calm Calm -- 30.56 in1034.9 mb - 0.00 in0.0 mm 0.00 in0.0 mm
06:10 AM -6.0°F-21.1°C -11.3°F-24.1°C 77% Calm Calm -- 30.55 in1034.5 mb - 0.00 in0.0 mm 0.00 in0.0 mm
06:20 AM -5.7°F-20.9°C -10.8°F-23.8°C 78% Calm Calm -- 30.54 in1034.2 mb - 0.00 in0.0 mm 0.00 in0.0 mm
06:30 AM -5.1°F-20.6°C -10.2°F-23.4°C 78% Calm Calm -- 30.53 in1033.9 mb - 0.00 in0.0 mm 0.00 in0.0 mm
06:40 AM -4.7°F-20.4°C -9.9°F-23.3°C 78% Calm Calm -- 30.53 in1033.9 mb - 0.00 in0.0 mm 0.00 in0.0 mm
06:50 AM -4.5°F-20.3°C -9.9°F-23.3°C 77% Calm Calm -- 30.52 in1033.5 mb - 0.00 in0.0 mm 0.00 in0.0 mm
07:00 AM -4.4°F-20.2°C -9.8°F-23.2°C 77% Calm Calm -- 30.51 in1033.2 mb - 0.00 in0.0 mm 0.00 in0.0 mm
07:10 AM -4.4°F-20.2°C -9.7°F-23.2°C 77% Calm Calm -- 30.51 in1033.2 mb - 0.00 in0.0 mm 0.00 in0.0 mm
07:20 AM -4.4°F-20.2°C -9.8°F-23.2°C 77% Calm Calm -- 30.50 in1032.8 mb - 0.00 in0.0 mm 0.00 in0.0 mm
07:30 AM -4.4°F-20.2°C -9.8°F-23.2°C 77% Calm Calm -- 30.49 in1032.5 mb - 0.00 in0.0 mm 0.00 in0.0 mm
07:40 AM -3.9°F-19.9°C -9.3°F-22.9°C 77% Calm Calm -- 30.49 in1032.5 mb - 0.00 in0.0 mm 0.00 in0.0 mm
07:50 AM -3.4°F-19.7°C -8.8°F-22.7°C 77% Calm Calm -- 30.49 in1032.5 mb - 0.00 in0.0 mm 0.00 in0.0 mm
08:00 AM -3.0°F-19.4°C -8.4°F-22.4°C 77% Calm Calm -- 30.48 in1032.2 mb - 0.00 in0.0 mm 0.00 in0.0 mm
08:10 AM -2.6°F-19.2°C -8.0°F-22.2°C 77% Calm Calm -- 30.47 in1031.8 mb - 0.00 in0.0 mm 0.00 in0.0 mm
08:20 AM -2.2°F-19.0°C -7.6°F-22.0°C 77% Calm Calm -- 30.47 in1031.8 mb - 0.00 in0.0 mm 0.00 in0.0 mm
08:30 AM -1.7°F-18.7°C -7.2°F-21.8°C 77% Calm Calm -- 30.47 in1031.8 mb - 0.00 in0.0 mm 0.00 in0.0 mm
08:40 AM -1.2°F-18.4°C -6.7°F-21.5°C 77% Calm Calm -- 30.47 in1031.8 mb - 0.00 in0.0 mm 0.00 in0.0 mm
08:50 AM -0.8°F-18.2°C -6.5°F-21.4°C 76% Calm Calm -- 30.47 in1031.8 mb - 0.00 in0.0 mm 0.00 in0.0 mm
09:00 AM -0.4°F-18.0°C -6.2°F-21.2°C 76% Calm Calm -- 30.46 in1031.5 mb - 0.00 in0.0 mm 0.00 in0.0 mm
09:10 AM 0.0°F-17.8°C -5.8°F-21.0°C 76% Calm Calm -- 30.45 in1031.2 mb - 0.00 in0.0 mm 0.00 in0.0 mm
09:20 AM 0.3°F-17.6°C -5.5°F-20.8°C 76% Calm Calm -- 30.45 in1031.2 mb - 0.00 in0.0 mm 0.00 in0.0 mm
09:30 AM 0.7°F-17.4°C -5.1°F-20.6°C 76% Calm Calm -- 30.44 in1030.8 mb - 0.00 in0.0 mm 0.00 in0.0 mm
09:40 AM 1.1°F-17.2°C -4.7°F-20.4°C 76% Calm Calm -- 30.43 in1030.5 mb - 0.00 in0.0 mm 0.00 in0.0 mm
09:50 AM 1.5°F-16.9°C -4.3°F-20.2°C 76% Calm Calm -- 30.43 in1030.5 mb - 0.00 in0.0 mm 0.00 in0.0 mm
10:00 AM 2.1°F-16.6°C -3.7°F-19.8°C 76% Calm Calm -- 30.42 in1030.1 mb - 0.00 in0.0 mm 0.00 in0.0 mm
10:10 AM 2.6°F-16.3°C -3.5°F-19.7°C 75% Calm Calm 3.5 mph5.6 kmh 30.41 in1029.8 mb - 0.00 in0.0 mm 0.00 in0.0 mm
10:20 AM 3.1°F-16.1°C -3.1°F-19.5°C 75% Calm Calm -- 30.40 in1029.5 mb - 0.00 in0.0 mm 0.00 in0.0 mm
10:30 AM 3.5°F-15.8°C -2.6°F-19.2°C 75% Calm Calm 3.5 mph5.6 kmh 30.39 in1029.1 mb - 0.00 in0.0 mm 0.00 in0.0 mm
10:40 AM 4.3°F-15.4°C -1.9°F-18.8°C 75% Calm Calm 2.3 mph3.7 kmh 30.38 in1028.8 mb - 0.00 in0.0 mm 0.00 in0.0 mm
10:50 AM 5.2°F-14.9°C -1.3°F-18.5°C 74% Calm Calm 3.5 mph5.6 kmh 30.37 in1028.4 mb - 0.00 in0.0 mm 0.00 in0.0 mm
11:00 AM 5.8°F-14.6°C -1.0°F-18.3°C 73% Calm Calm -- 30.38 in1028.8 mb - 0.00 in0.0 mm 0.00 in0.0 mm
11:10 AM 6.2°F-14.3°C -0.6°F-18.1°C 73% Calm Calm -- 30.37 in1028.4 mb - 0.00 in0.0 mm 0.00 in0.0 mm
11:20 AM 6.6°F-14.1°C -0.2°F-17.9°C 73% 1.2 mph S1.9 kmh S 3.5 mph5.6 kmh 30.36 in1028.1 mb - 0.00 in0.0 mm 0.00 in0.0 mm
11:30 AM 7.2°F-13.8°C 0.4°F-17.6°C 73% Calm Calm 1.2 mph1.9 kmh 30.36 in1028.1 mb - 0.00 in0.0 mm 0.00 in0.0 mm
11:40 AM 7.7°F-13.5°C 1.2°F-17.1°C 74% Calm Calm 3.5 mph5.6 kmh 30.35 in1027.8 mb - 0.00 in0.0 mm 0.00 in0.0 mm
11:50 AM 8.2°F-13.2°C 1.6°F-16.9°C 74% 1.2 mph S1.9 kmh S 2.3 mph3.7 kmh 30.34 in1027.4 mb - 0.00 in0.0 mm 0.00 in0.0 mm
12:00 PM 9.0°F-12.8°C 2.4°F-16.4°C 74% Calm Calm 3.5 mph5.6 kmh 30.34 in1027.4 mb - 0.00 in0.0 mm 0.00 in0.0 mm
12:10 PM 9.6°F-12.4°C 3.0°F-16.1°C 74% 4.6 mph S7.4 kmh S 5.8 mph9.3 kmh 30.33 in1027.1 mb - 0.00 in0.0 mm 0.00 in0.0 mm
12:20 PM 10.1°F-12.2°C 3.4°F-15.9°C 74% Calm Calm 3.5 mph5.6 kmh 30.32 in1026.8 mb - 0.00 in0.0 mm 0.00 in0.0 mm
12:30 PM 10.4°F-12.0°C 3.7°F-15.7°C 74% 2.3 mph S3.7 kmh S 4.6 mph7.4 kmh 30.31 in1026.4 mb - 0.00 in0.0 mm 0.00 in0.0 mm
12:40 PM 10.6°F-11.9°C 3.9°F-15.6°C 74% 1.2 mph S1.9 kmh S 3.5 mph5.6 kmh 30.30 in1026.1 mb - 0.00 in0.0 mm 0.00 in0.0 mm
12:50 PM 10.6°F-11.9°C 3.9°F-15.6°C 74% 2.3 mph S3.7 kmh S 8.1 mph13.0 kmh 30.28 in1025.4 mb - 0.00 in0.0 mm 0.00 in0.0 mm
01:00 PM 10.8°F-11.8°C 4.4°F-15.3°C 75% Calm Calm 3.5 mph5.6 kmh 30.27 in1025.1 mb - 0.00 in0.0 mm 0.00 in0.0 mm
01:10 PM 10.9°F-11.7°C 4.5°F-15.3°C 75% 1.2 mph S1.9 kmh S 3.5 mph5.6 kmh 30.26 in1024.7 mb - 0.00 in0.0 mm 0.00 in0.0 mm
01:20 PM 11.1°F-11.6°C 4.7°F-15.2°C 75% Calm Calm 4.6 mph7.4 kmh 30.25 in1024.4 mb - 0.00 in0.0 mm 0.00 in0.0 mm
01:30 PM 11.5°F-11.4°C 5.1°F-14.9°C 75% 1.2 mph S1.9 kmh S 3.5 mph5.6 kmh 30.24 in1024.0 mb - 0.00 in0.0 mm 0.00 in0.0 mm
01:40 PM 11.7°F-11.3°C 5.3°F-14.8°C 75% Calm Calm -- 30.24 in1024.0 mb - 0.00 in0.0 mm 0.00 in0.0 mm
01:50 PM 11.8°F-11.2°C 5.7°F-14.6°C 76% 1.2 mph S1.9 kmh S 3.5 mph5.6 kmh 30.23 in1023.7 mb - 0.00 in0.0 mm 0.00 in0.0 mm
02:00 PM 12.1°F-11.1°C 6.0°F-14.4°C 76% Calm Calm -- 30.22 in1023.4 mb - 0.00 in0.0 mm 0.00 in0.0 mm
02:10 PM 12.5°F-10.8°C 6.4°F-14.2°C 76% Calm Calm -- 30.22 in1023.4 mb - 0.00 in0.0 mm 0.00 in0.0 mm
02:20 PM 12.5°F-10.8°C 6.4°F-14.2°C 76% Calm Calm 2.3 mph3.7 kmh 30.22 in1023.4 mb - 0.00 in0.0 mm 0.00 in0.0 mm
02:30 PM 12.7°F-10.7°C 6.9°F-13.9°C 77% Calm Calm -- 30.21 in1023.0 mb - 0.00 in0.0 mm 0.00 in0.0 mm
02:40 PM 13.0°F-10.6°C 7.1°F-13.8°C 77% Calm Calm -- 30.21 in1023.0 mb - 0.00 in0.0 mm 0.00 in0.0 mm
02:50 PM 13.3°F-10.4°C 7.4°F-13.7°C 77% Calm Calm 3.5 mph5.6 kmh 30.20 in1022.7 mb - 0.00 in0.0 mm 0.00 in0.0 mm
03:00 PM 13.5°F-10.3°C 7.9°F-13.4°C 78% Calm Calm -- 30.20 in1022.7 mb - 0.00 in0.0 mm 0.00 in0.0 mm
03:10 PM 13.5°F-10.3°C 8.2°F-13.2°C 79% Calm Calm -- 30.19 in1022.4 mb - 0.00 in0.0 mm 0.00 in0.0 mm
03:20 PM 13.6°F-10.2°C 8.6°F-13.0°C 80% Calm Calm -- 30.18 in1022.0 mb - 0.00 in0.0 mm 0.00 in0.0 mm
03:30 PM 13.6°F-10.2°C 8.9°F-12.8°C 81% Calm Calm -- 30.17 in1021.7 mb - 0.00 in0.0 mm 0.00 in0.0 mm
03:40 PM 13.7°F-10.2°C 8.9°F-12.8°C 81% Calm Calm -- 30.17 in1021.7 mb - 0.00 in0.0 mm 0.00 in0.0 mm
03:50 PM 13.8°F-10.1°C 9.3°F-12.6°C 82% Calm Calm -- 30.16 in1021.3 mb - 0.00 in0.0 mm 0.00 in0.0 mm
04:00 PM 14.0°F-10.0°C 9.5°F-12.5°C 82% Calm Calm -- 30.16 in1021.3 mb - 0.00 in0.0 mm 0.00 in0.0 mm
04:10 PM 14.1°F-9.9°C 9.6°F-12.4°C 82% Calm Calm -- 30.16 in1021.3 mb - 0.00 in0.0 mm 0.00 in0.0 mm
04:20 PM 14.3°F-9.8°C 9.8°F-12.3°C 82% Calm Calm 2.3 mph3.7 kmh 30.16 in1021.3 mb - 0.00 in0.0 mm 0.00 in0.0 mm
04:30 PM 14.5°F-9.7°C 10.0°F-12.2°C 82% Calm Calm -- 30.16 in1021.3 mb - 0.00 in0.0 mm 0.00 in0.0 mm
04:40 PM 14.6°F-9.7°C 10.1°F-12.2°C 82% Calm Calm -- 30.16 in1021.3 mb - 0.00 in0.0 mm 0.00 in0.0 mm
04:50 PM 14.6°F-9.7°C 10.1°F-12.2°C 82% Calm Calm -- 30.15 in1021.0 mb - 0.00 in0.0 mm 0.00 in0.0 mm
05:00 PM 14.6°F-9.7°C 10.1°F-12.2°C 82% Calm Calm -- 30.15 in1021.0 mb - 0.00 in0.0 mm 0.00 in0.0 mm
05:10 PM 14.6°F-9.7°C 10.1°F-12.2°C 82% Calm Calm -- 30.15 in1021.0 mb - 0.00 in0.0 mm 0.00 in0.0 mm
05:20 PM 14.6°F-9.7°C 10.1°F-12.2°C 82% Calm Calm -- 30.15 in1021.0 mb - 0.00 in0.0 mm 0.00 in0.0 mm
05:30 PM 14.5°F-9.7°C 10.0°F-12.2°C 82% Calm Calm 1.2 mph1.9 kmh 30.14 in1020.7 mb - 0.00 in0.0 mm 0.00 in0.0 mm
05:40 PM 14.5°F-9.7°C 10.0°F-12.2°C 82% Calm Calm -- 30.14 in1020.7 mb - 0.00 in0.0 mm 0.00 in0.0 mm
05:50 PM 14.5°F-9.7°C 10.0°F-12.2°C 82% Calm Calm -- 30.14 in1020.7 mb - 0.00 in0.0 mm 0.00 in0.0 mm
06:00 PM 14.4°F-9.8°C 10.2°F-12.1°C 83% Calm Calm -- 30.14 in1020.7 mb - 0.00 in0.0 mm 0.00 in0.0 mm
06:10 PM 14.3°F-9.8°C 10.1°F-12.2°C 83% Calm Calm -- 30.14 in1020.7 mb - 0.00 in0.0 mm 0.00 in0.0 mm
06:20 PM 14.3°F-9.8°C 10.1°F-12.2°C 83% Calm Calm -- 30.14 in1020.7 mb - 0.00 in0.0 mm 0.00 in0.0 mm
06:30 PM 14.4°F-9.8°C 10.2°F-12.1°C 83% Calm Calm -- 30.14 in1020.7 mb - 0.00 in0.0 mm 0.00 in0.0 mm
06:40 PM 14.5°F-9.7°C 10.2°F-12.1°C 83% Calm Calm -- 30.13 in1020.3 mb - 0.00 in0.0 mm 0.00 in0.0 mm
06:50 PM 14.5°F-9.7°C 10.3°F-12.1°C 83% Calm Calm -- 30.13 in1020.3 mb - 0.00 in0.0 mm 0.00 in0.0 mm
07:00 PM 14.6°F-9.7°C 10.6°F-11.9°C 84% Calm Calm -- 30.13 in1020.3 mb - 0.00 in0.0 mm 0.00 in0.0 mm
07:10 PM 14.8°F-9.6°C 10.8°F-11.8°C 84% Calm Calm -- 30.13 in1020.3 mb - 0.00 in0.0 mm 0.00 in0.0 mm
07:20 PM 14.8°F-9.6°C 10.8°F-11.8°C 84% Calm Calm -- 30.13 in1020.3 mb - 0.00 in0.0 mm 0.00 in0.0 mm
07:30 PM 14.9°F-9.5°C 10.9°F-11.7°C 84% Calm Calm -- 30.13 in1020.3 mb - 0.00 in0.0 mm 0.00 in0.0 mm
07:40 PM 14.9°F-9.5°C 10.9°F-11.7°C 84% Calm Calm -- 30.13 in1020.3 mb - 0.00 in0.0 mm 0.00 in0.0 mm
07:50 PM 15.0°F-9.4°C 11.0°F-11.7°C 84% Calm Calm -- 30.12 in1020.0 mb - 0.00 in0.0 mm 0.00 in0.0 mm
08:00 PM 15.0°F-9.4°C 11.0°F-11.7°C 84% Calm Calm -- 30.12 in1020.0 mb - 0.00 in0.0 mm 0.00 in0.0 mm
08:10 PM 15.1°F-9.4°C 11.1°F-11.6°C 84% Calm Calm -- 30.12 in1020.0 mb - 0.00 in0.0 mm 0.00 in0.0 mm
08:20 PM 15.2°F-9.3°C 11.2°F-11.6°C 84% Calm Calm -- 30.12 in1020.0 mb - 0.00 in0.0 mm 0.00 in0.0 mm
08:30 PM 15.3°F-9.3°C 11.3°F-11.5°C 84% Calm Calm -- 30.12 in1020.0 mb - 0.00 in0.0 mm 0.00 in0.0 mm
08:40 PM 15.3°F-9.3°C 11.4°F-11.4°C 84% Calm Calm -- 30.12 in1020.0 mb - 0.00 in0.0 mm 0.00 in0.0 mm
08:50 PM 15.4°F-9.2°C 11.4°F-11.4°C 84% Calm Calm -- 30.12 in1020.0 mb - 0.00 in0.0 mm 0.00 in0.0 mm
09:00 PM 15.4°F-9.2°C 11.4°F-11.4°C 84% Calm Calm -- 30.12 in1020.0 mb - 0.00 in0.0 mm 0.00 in0.0 mm
09:10 PM 15.4°F-9.2°C 11.4°F-11.4°C 84% Calm Calm -- 30.12 in1020.0 mb - 0.00 in0.0 mm 0.00 in0.0 mm
09:20 PM 15.4°F-9.2°C 11.4°F-11.4°C 84% Calm Calm -- 30.12 in1020.0 mb - 0.00 in0.0 mm 0.00 in0.0 mm
09:30 PM 15.3°F-9.3°C 11.4°F-11.4°C 84% Calm Calm -- 30.12 in1020.0 mb - 0.00 in0.0 mm 0.00 in0.0 mm
09:40 PM 15.3°F-9.3°C 11.3°F-11.5°C 84% Calm Calm -- 30.12 in1020.0 mb - 0.00 in0.0 mm 0.00 in0.0 mm
09:50 PM 15.3°F-9.3°C 11.4°F-11.4°C 84% Calm Calm -- 30.12 in1020.0 mb - 0.00 in0.0 mm 0.00 in0.0 mm
10:00 PM 15.4°F-9.2°C 11.4°F-11.4°C 84% Calm Calm -- 30.12 in1020.0 mb - 0.00 in0.0 mm 0.00 in0.0 mm
10:10 PM 15.4°F-9.2°C 11.4°F-11.4°C 84% Calm Calm -- 30.13 in1020.3 mb - 0.00 in0.0 mm 0.00 in0.0 mm
10:20 PM 15.4°F-9.2°C 11.4°F-11.4°C 84% Calm Calm -- 30.13 in1020.3 mb - 0.00 in0.0 mm 0.00 in0.0 mm
10:30 PM 15.3°F-9.3°C 11.3°F-11.5°C 84% Calm Calm -- 30.13 in1020.3 mb - 0.00 in0.0 mm 0.00 in0.0 mm
10:40 PM 15.2°F-9.3°C 11.2°F-11.6°C 84% Calm Calm -- 30.13 in1020.3 mb - 0.00 in0.0 mm 0.00 in0.0 mm
10:50 PM 15.2°F-9.3°C 11.5°F-11.4°C 85% Calm Calm -- 30.14 in1020.7 mb - 0.00 in0.0 mm 0.00 in0.0 mm
11:00 PM 15.1°F-9.4°C 11.2°F-11.6°C 84% Calm Calm -- 30.14 in1020.7 mb - 0.00 in0.0 mm 0.00 in0.0 mm
11:10 PM 15.0°F-9.4°C 11.0°F-11.7°C 84% Calm Calm -- 30.14 in1020.7 mb - 0.00 in0.0 mm 0.00 in0.0 mm
11:20 PM 15.0°F-9.4°C 11.0°F-11.7°C 84% Calm Calm -- 30.15 in1021.0 mb - 0.00 in0.0 mm 0.00 in0.0 mm
11:30 PM 14.8°F-9.6°C 10.8°F-11.8°C 84% Calm Calm 1.2 mph1.9 kmh 30.16 in1021.3 mb - 0.00 in0.0 mm 0.00 in0.0 mm
11:40 PM 14.6°F-9.7°C 10.6°F-11.9°C 84% Calm Calm -- 30.16 in1021.3 mb - 0.00 in0.0 mm 0.00 in0.0 mm
11:50 PM 14.4°F-9.8°C 10.4°F-12.0°C 84% Calm Calm 3.5 mph5.6 kmh 30.17 in1021.7 mb - 0.00 in0.0 mm 0.00 in0.0 mm